createdAt,value
2023-09-08T00:01:43.961Z,101285.00
2023-09-08T00:04:10.587Z,101280.91
2023-09-08T00:06:37.054Z,101286.97
2023-09-08T00:09:04.355Z,101285.13
2023-09-08T00:11:30.807Z,101284.41
2023-09-08T00:13:58.585Z,101291.88
2023-09-08T00:16:25.309Z,101287.63
2023-09-08T00:18:51.950Z,101286.28
2023-09-08T00:21:18.386Z,101281.78
2023-09-08T00:23:44.868Z,101289.41
2023-09-08T00:26:11.447Z,101279.94
2023-09-08T00:28:38.098Z,101278.72
2023-09-08T00:31:06.061Z,101285.50
2023-09-08T00:33:32.610Z,101278.59
2023-09-08T00:35:59.166Z,101278.47
2023-09-08T00:38:25.808Z,101278.84
2023-09-08T00:40:52.530Z,101280.81
2023-09-08T00:43:19.024Z,101278.59
2023-09-08T00:45:46.747Z,101277.63
2023-09-08T00:48:14.888Z,101280.44
2023-09-08T00:50:41.581Z,101281.78
2023-09-08T00:53:08.710Z,101275.53
2023-09-08T00:55:36.288Z,101281.53
2023-09-08T00:58:03.003Z,101274.13
2023-09-08T01:00:29.663Z,101275.50
2023-09-08T01:02:56.271Z,101277.28
2023-09-08T01:05:24.295Z,101271.56
2023-09-08T01:10:18.983Z,101275.53
2023-09-08T01:12:45.504Z,101268.50
2023-09-08T01:15:12.464Z,101270.28
2023-09-08T01:17:39.036Z,101277.06
2023-09-08T01:20:13.402Z,101275.41
2023-09-08T01:23:12.230Z,101273.56
2023-09-08T01:25:43.670Z,101277.41
2023-09-08T01:28:11.379Z,101268.38
2023-09-08T01:30:38.529Z,101277.19
2023-09-08T01:35:32.865Z,101269.31
2023-09-08T01:37:59.370Z,101264.25
2023-09-08T01:40:25.835Z,101265.09
2023-09-08T01:42:54.276Z,101268.50
2023-09-08T01:45:21.757Z,101271.09
2023-09-08T01:47:48.329Z,101262.75
2023-09-08T01:50:14.821Z,101265.16
2023-09-08T01:52:41.298Z,101263.31
2023-09-08T01:55:08.359Z,101263.78
2023-09-08T01:57:34.830Z,101261.31
2023-09-08T02:00:02.772Z,101263.03
2023-09-08T02:02:29.247Z,101259.53
2023-09-08T02:04:55.792Z,101257.59
2023-09-08T02:07:22.370Z,101251.19
2023-09-08T02:09:48.911Z,101251.66
2023-09-08T02:12:15.347Z,101256.06
2023-09-08T02:14:42.168Z,101252.63
2023-09-08T02:17:10.026Z,101256.44
2023-09-08T02:19:36.476Z,101245.66
2023-09-08T02:22:03.137Z,101251.03
2023-09-08T02:24:29.811Z,101248.72
2023-09-08T02:26:56.272Z,101255.84
2023-09-08T02:29:22.759Z,101254.44
2023-09-08T02:31:49.403Z,101259.00
2023-09-08T02:34:17.170Z,101247.78
2023-09-08T02:36:43.644Z,101250.56
2023-09-08T02:39:10.331Z,101255.47
2023-09-08T02:41:36.782Z,101246.66
2023-09-08T02:44:03.887Z,101250.06
2023-09-08T02:46:30.459Z,101249.13
2023-09-08T02:48:57.116Z,101243.38
2023-09-08T02:51:25.059Z,101245.75
2023-09-08T02:53:51.574Z,101245.75
2023-09-08T02:56:18.041Z,101238.34
2023-09-08T02:58:44.646Z,101245.31
2023-09-08T03:01:12.829Z,101247.59
2023-09-08T03:03:39.430Z,101248.75
2023-09-08T03:06:06.004Z,101250.75
2023-09-08T03:08:34.122Z,101241.81
2023-09-08T03:11:00.986Z,101246.03
2023-09-08T03:13:27.437Z,101244.66
2023-09-08T03:15:53.900Z,101242.13
2023-09-08T03:18:20.364Z,101240.19
2023-09-08T03:20:49.549Z,101243.03
2023-09-08T03:23:16.238Z,101245.09
2023-09-08T03:25:44.496Z,101249.69
2023-09-08T03:28:10.938Z,101243.38
2023-09-08T03:30:37.541Z,101235.69
2023-09-08T03:33:04.241Z,101240.47
2023-09-08T03:35:30.833Z,101238.44
2023-09-08T03:37:57.295Z,101233.81
2023-09-08T03:40:23.792Z,101236.16
2023-09-08T03:42:51.578Z,101236.53
2023-09-08T03:45:19.524Z,101234.44
2023-09-08T03:47:45.991Z,101237.47
2023-09-08T03:50:12.532Z,101227.81
2023-09-08T03:52:39.059Z,101244.88
2023-09-08T03:55:05.858Z,101241.22
2023-09-08T03:57:32.303Z,101239.53
2023-09-08T04:00:00.178Z,101239.81
2023-09-08T04:02:26.738Z,101239.66
2023-09-08T04:04:53.340Z,101238.91
2023-09-08T04:07:19.892Z,101236.19
2023-09-08T04:09:46.340Z,101232.63
2023-09-08T04:12:12.818Z,101236.19
2023-09-08T04:14:39.302Z,101233.13
2023-09-08T04:17:07.117Z,101239.25
2023-09-08T04:19:34.795Z,101236.16
2023-09-08T04:22:01.329Z,101230.16
2023-09-08T04:24:27.791Z,101225.69
2023-09-08T04:26:54.288Z,101234.97
2023-09-08T04:29:20.749Z,101237.91
2023-09-08T04:31:47.232Z,101235.09
2023-09-08T04:34:15.090Z,101230.22
2023-09-08T04:36:41.540Z,101222.38
2023-09-08T04:39:08.032Z,101223.06
2023-09-08T04:41:34.578Z,101225.38
2023-09-08T04:44:01.059Z,101223.13
2023-09-08T04:46:27.537Z,101214.41
2023-09-08T04:48:54.012Z,101224.13
2023-09-08T04:51:22.096Z,101224.50
2023-09-08T04:53:48.648Z,101228.97
2023-09-08T04:56:15.252Z,101217.69
2023-09-08T04:58:41.810Z,101219.53
2023-09-08T05:01:08.327Z,101217.84
2023-09-08T05:03:35.022Z,101214.44
2023-09-08T05:06:01.686Z,101223.66
2023-09-08T05:08:29.558Z,101225.41
2023-09-08T05:10:56.078Z,101225.78
2023-09-08T05:13:30.976Z,101221.03
2023-09-08T05:15:58.398Z,101224.91
2023-09-08T05:18:25.006Z,101223.72
2023-09-08T05:20:51.503Z,101230.19
2023-09-08T05:23:17.955Z,101226.56
2023-09-08T05:25:45.969Z,101228.06
2023-09-08T05:28:12.480Z,101227.31
2023-09-08T05:30:38.975Z,101226.22
2023-09-08T05:33:05.760Z,101229.91
2023-09-08T05:35:32.362Z,101229.78
2023-09-08T05:37:58.913Z,101230.31
2023-09-08T05:40:25.528Z,101228.75
2023-09-08T05:42:53.435Z,101231.66
2023-09-08T05:45:21.432Z,101231.28
2023-09-08T05:47:48.759Z,101231.28
2023-09-08T05:50:15.288Z,101223.97
2023-09-08T05:52:41.920Z,101216.38
2023-09-08T05:55:08.803Z,101219.53
2023-09-08T05:57:35.361Z,101225.63
2023-09-08T06:00:03.615Z,101214.59
2023-09-08T06:02:30.362Z,101216.00
2023-09-08T06:04:56.964Z,101219.03
2023-09-08T06:07:23.556Z,101222.22
2023-09-08T06:09:50.112Z,101212.78
2023-09-08T06:12:16.736Z,101223.09
2023-09-08T06:14:44.054Z,101218.69
2023-09-08T06:17:12.089Z,101219.22
2023-09-08T06:19:38.587Z,101220.16
2023-09-08T06:22:05.060Z,101224.50
2023-09-08T06:24:31.548Z,101218.28
2023-09-08T06:26:58.067Z,101227.88
2023-09-08T06:29:24.631Z,101227.03
2023-09-08T06:31:51.416Z,101224.38
2023-09-08T06:34:19.329Z,101219.69
2023-09-08T06:36:45.962Z,101223.09
2023-09-08T06:39:12.541Z,101228.31
2023-09-08T06:41:39.005Z,101226.19
2023-09-08T06:44:06.155Z,101220.56
2023-09-08T06:46:32.738Z,101223.50
2023-09-08T06:48:59.453Z,101233.78
2023-09-08T06:51:27.288Z,101222.75
2023-09-08T06:53:57.541Z,101222.53
2023-09-08T06:56:24.193Z,101235.28
2023-09-08T06:58:50.638Z,101228.16
2023-09-08T07:01:17.336Z,101235.41
2023-09-08T07:03:44.221Z,101234.94
2023-09-08T07:06:10.895Z,101233.53
2023-09-08T07:08:38.836Z,101231.41
2023-09-08T07:11:05.358Z,101232.09
2023-09-08T07:13:32.024Z,101234.06
2023-09-08T07:15:58.645Z,101241.34
2023-09-08T07:18:25.469Z,101233.16
2023-09-08T07:20:51.970Z,101240.66
2023-09-08T07:23:18.796Z,101237.69
2023-09-08T07:25:47.890Z,101227.59
2023-09-08T07:28:14.375Z,101229.25
2023-09-08T07:30:40.964Z,101226.09
2023-09-08T07:33:07.587Z,101224.00
2023-09-08T07:35:37.530Z,101226.09
2023-09-08T07:38:04.371Z,101221.59
2023-09-08T07:40:33.205Z,101229.16
2023-09-08T07:43:01.142Z,101222.34
2023-09-08T07:45:27.671Z,101223.97
2023-09-08T07:47:54.138Z,101225.88
2023-09-08T07:50:22.851Z,101229.41
2023-09-08T07:52:50.398Z,101224.22
2023-09-08T07:55:17.539Z,101222.31
2023-09-08T07:57:45.109Z,101222.38
2023-09-08T08:00:14.368Z,101226.38
2023-09-08T08:02:48.259Z,101223.81
2023-09-08T08:05:15.649Z,101230.88
2023-09-08T08:07:43.103Z,101231.34
2023-09-08T08:10:10.704Z,101232.69
2023-09-08T08:12:37.541Z,101233.66
2023-09-08T08:15:05.460Z,101228.22
2023-09-08T08:17:33.509Z,101238.50
2023-09-08T08:20:00.143Z,101234.22
2023-09-08T08:22:26.662Z,101235.91
2023-09-08T08:24:53.160Z,101231.41
2023-09-08T08:27:19.790Z,101226.53
2023-09-08T08:29:46.366Z,101224.53
2023-09-08T08:32:12.866Z,101220.59
2023-09-08T08:34:40.830Z,101223.75
2023-09-08T08:37:07.294Z,101222.53
2023-09-08T08:39:33.799Z,101223.91
2023-09-08T08:42:07.667Z,101217.69
2023-09-08T08:44:34.400Z,101219.00
2023-09-08T08:47:01.812Z,101216.78
2023-09-08T08:49:29.595Z,101213.31
2023-09-08T08:51:59.399Z,101207.25
2023-09-08T08:54:26.009Z,101214.03
2023-09-08T08:56:53.148Z,101203.59
2023-09-08T08:59:19.833Z,101207.44
2023-09-08T09:01:46.782Z,101211.34
2023-09-08T09:04:14.436Z,101205.28
2023-09-08T09:06:40.938Z,101202.88
2023-09-08T09:09:09.083Z,101203.88
2023-09-08T09:11:35.746Z,101211.03
2023-09-08T09:14:02.262Z,101204.44
2023-09-08T09:16:28.758Z,101196.09
2023-09-08T09:18:56.666Z,101195.03
2023-09-08T09:21:23.642Z,101202.00
2023-09-08T09:23:50.568Z,101198.28
2023-09-08T09:26:26.241Z,101206.25
2023-09-08T09:28:53.349Z,101202.38
2023-09-08T09:31:19.796Z,101195.94
2023-09-08T09:33:46.297Z,101194.78
2023-09-08T09:36:21.252Z,101200.13
2023-09-08T09:38:48.490Z,101196.75
2023-09-08T09:41:15.080Z,101182.50
2023-09-08T09:43:43.528Z,101190.16
2023-09-08T09:46:10.573Z,101190.22
2023-09-08T09:48:37.638Z,101189.78
2023-09-08T09:51:16.694Z,101184.97
2023-09-08T09:53:43.773Z,101182.94
2023-09-08T09:56:10.886Z,101182.16
2023-09-08T09:58:38.798Z,101193.97
2023-09-08T10:01:06.790Z,101180.16
2023-09-08T10:03:34.079Z,101174.81
2023-09-08T10:06:01.066Z,101175.63
2023-09-08T10:08:28.448Z,101172.47
2023-09-08T10:10:55.776Z,101171.72
2023-09-08T10:13:27.092Z,101167.28
2023-09-08T10:15:57.812Z,101175.03
2023-09-08T10:18:26.666Z,101170.59
2023-09-08T10:20:54.561Z,101167.72
2023-09-08T10:23:24.599Z,101168.19
2023-09-08T10:25:56.807Z,101167.38
2023-09-08T10:28:23.604Z,101167.88
2023-09-08T10:30:51.242Z,101163.00
2023-09-08T10:33:20.290Z,101166.69
2023-09-08T10:35:48.477Z,101160.16
2023-09-08T10:38:26.016Z,101155.69
2023-09-08T10:40:53.073Z,101156.91
2023-09-08T10:43:20.092Z,101154.84
2023-09-08T10:45:47.475Z,101162.59
2023-09-08T10:48:15.416Z,101155.28
2023-09-08T10:50:42.923Z,101154.44
2023-09-08T10:53:14.138Z,101147.94
2023-09-08T10:55:42.301Z,101148.34
2023-09-08T10:58:10.592Z,101156.06
2023-09-08T11:00:54.895Z,101158.53
2023-09-08T11:03:29.590Z,101162.19
2023-09-08T11:05:57.284Z,101155.25
2023-09-08T11:08:27.273Z,101148.34
2023-09-08T11:10:56.296Z,101147.91
2023-09-08T11:13:23.268Z,101149.53
2023-09-08T11:15:52.125Z,101149.97
2023-09-08T11:18:18.768Z,101153.56
2023-09-08T11:20:45.703Z,101142.13
2023-09-08T11:23:12.412Z,101146.16
2023-09-08T11:25:40.788Z,101142.09
2023-09-08T11:28:07.413Z,101140.81
2023-09-08T11:30:34.747Z,101143.72
2023-09-08T11:33:01.269Z,101136.38
2023-09-08T11:35:28.804Z,101132.66
2023-09-08T11:38:00.628Z,101134.31
2023-09-08T11:40:27.249Z,101127.69
2023-09-08T11:42:55.426Z,101126.81
2023-09-08T11:45:25.386Z,101119.03
2023-09-08T11:47:53.532Z,101122.25
2023-09-08T11:50:20.239Z,101119.75
2023-09-08T11:52:47.994Z,101119.75
2023-09-08T11:55:14.909Z,101118.69
2023-09-08T11:57:42.638Z,101112.03
2023-09-08T12:00:12.244Z,101119.16
2023-09-08T12:02:38.991Z,101116.66
2023-09-08T12:05:06.046Z,101116.53
2023-09-08T12:07:32.811Z,101119.44
2023-09-08T12:09:59.365Z,101112.09
2023-09-08T12:12:26.743Z,101112.00
2023-09-08T12:14:53.309Z,101110.88
2023-09-08T12:17:21.877Z,101096.53
2023-09-08T12:19:48.469Z,101099.47
2023-09-08T12:22:14.930Z,101099.38
2023-09-08T12:24:48.628Z,101097.72
2023-09-08T12:27:15.268Z,101092.47
2023-09-08T12:29:41.786Z,101096.06
2023-09-08T12:32:08.400Z,101090.63
2023-09-08T12:34:36.576Z,101089.41
2023-09-08T12:37:03.267Z,101085.41
2023-09-08T12:39:29.776Z,101078.84
2023-09-08T12:41:56.256Z,101084.56
2023-09-08T12:44:22.760Z,101083.28
2023-09-08T12:46:49.609Z,101088.63
2023-09-08T12:49:16.181Z,101078.22
2023-09-08T12:51:44.063Z,101077.44
2023-09-08T12:54:10.573Z,101080.84
2023-09-08T12:56:37.168Z,101070.22
2023-09-08T12:59:03.973Z,101071.44
2023-09-08T13:01:30.479Z,101067.88
2023-09-08T13:03:57.626Z,101065.38
2023-09-08T13:06:24.226Z,101060.75
2023-09-08T13:08:52.230Z,101056.72
2023-09-08T13:11:18.956Z,101051.34
2023-09-08T13:13:45.430Z,101052.94
2023-09-08T13:16:11.937Z,101044.09
2023-09-08T13:18:38.385Z,101053.34
2023-09-08T13:21:04.846Z,101045.56
2023-09-08T13:23:31.512Z,101051.25
2023-09-08T13:25:59.343Z,101041.44
2023-09-08T13:28:25.808Z,101034.81
2023-09-08T13:30:53.227Z,101035.25
2023-09-08T13:33:19.773Z,101035.34
2023-09-08T13:35:46.322Z,101038.13
2023-09-08T13:38:12.870Z,101037.84
2023-09-08T13:40:39.395Z,101042.69
2023-09-08T13:43:07.191Z,101035.03
2023-09-08T13:45:33.705Z,101041.44
2023-09-08T13:48:00.773Z,101036.91
2023-09-08T13:50:27.810Z,101032.56
2023-09-08T13:52:55.932Z,101034.84
2023-09-08T13:55:34.916Z,101028.78
2023-09-08T13:58:05.166Z,101031.19
2023-09-08T14:00:38.490Z,101028.88
2023-09-08T14:03:06.879Z,101024.78
2023-09-08T14:05:36.807Z,101025.50
2023-09-08T14:08:08.617Z,101022.53
2023-09-08T14:10:51.018Z,101019.66
2023-09-08T14:13:20.028Z,101018.25
2023-09-08T14:15:47.937Z,101018.06
2023-09-08T14:18:14.430Z,101012.63
2023-09-08T14:20:41.049Z,101008.72
2023-09-08T14:23:07.564Z,101014.00
2023-09-08T14:25:34.143Z,101007.00
2023-09-08T14:28:01.700Z,101008.44
2023-09-08T14:30:28.683Z,101004.22
2023-09-08T14:32:56.573Z,101003.50
2023-09-08T14:35:23.251Z,100997.00
2023-09-08T14:37:50.077Z,101001.88
2023-09-08T14:40:16.759Z,100995.16
2023-09-08T14:42:43.209Z,100988.53
2023-09-08T14:45:11.040Z,100999.56
2023-09-08T14:47:37.612Z,100989.88
2023-09-08T14:50:06.448Z,100998.00
2023-09-08T14:52:32.937Z,100992.28
2023-09-08T14:54:59.701Z,100991.19
2023-09-08T14:57:26.255Z,100988.25
2023-09-08T14:59:53.198Z,100992.22
2023-09-08T15:02:19.702Z,100998.00
2023-09-08T15:04:46.317Z,100994.81
2023-09-08T15:07:14.194Z,100989.22
2023-09-08T15:09:40.712Z,100997.06
2023-09-08T15:12:07.526Z,100989.72
2023-09-08T15:14:33.997Z,100995.84
2023-09-08T15:17:00.521Z,100989.69
2023-09-08T15:19:27.007Z,100986.03
2023-09-08T15:21:53.492Z,100988.75
2023-09-08T15:24:21.270Z,100983.34
2023-09-08T15:26:47.731Z,100980.34
2023-09-08T15:29:15.405Z,100980.06
2023-09-08T15:31:41.958Z,100978.38
2023-09-08T15:34:08.528Z,100969.56
2023-09-08T15:36:34.975Z,100976.06
2023-09-08T15:39:01.616Z,100973.06
2023-09-08T15:41:29.405Z,100971.91
2023-09-08T15:43:56.061Z,100971.78
2023-09-08T15:46:22.620Z,100966.09
2023-09-08T15:48:49.212Z,100964.91
2023-09-08T15:51:15.993Z,100962.03
2023-09-08T15:53:42.510Z,100967.69
2023-09-08T15:56:10.107Z,100969.28
2023-09-08T15:58:38.041Z,100970.06
2023-09-08T16:01:04.867Z,100965.81
2023-09-08T16:03:31.704Z,100977.94
2023-09-08T16:05:58.504Z,100977.59
2023-09-08T16:08:25.447Z,100974.72
2023-09-08T16:10:52.393Z,100978.31
2023-09-08T16:13:19.147Z,100974.28
2023-09-08T16:15:46.918Z,100969.38
2023-09-08T16:18:13.366Z,100968.72
2023-09-08T16:20:39.925Z,100970.69
2023-09-08T16:23:06.557Z,100967.06
2023-09-08T16:25:33.047Z,100969.53
2023-09-08T16:27:59.595Z,100964.22
2023-09-08T16:30:26.761Z,100954.53
2023-09-08T16:32:54.582Z,100957.78
2023-09-08T16:35:21.160Z,100957.84
2023-09-08T16:37:47.609Z,100966.34
2023-09-08T16:40:14.085Z,100967.31
2023-09-08T16:42:40.601Z,100965.56
2023-09-08T16:45:08.011Z,100972.19
2023-09-08T16:47:35.092Z,100969.75
2023-09-08T16:50:03.340Z,100967.44
2023-09-08T16:52:29.808Z,100967.84
2023-09-08T16:54:56.287Z,100970.28
2023-09-08T16:57:22.813Z,100975.19
2023-09-08T16:59:49.380Z,100980.56
2023-09-08T17:02:15.897Z,100978.16
2023-09-08T17:04:42.408Z,100983.06
2023-09-08T17:07:10.227Z,100975.34
2023-09-08T17:09:36.999Z,100977.00
2023-09-08T17:12:04.180Z,100977.00
2023-09-08T17:14:30.654Z,100977.41
2023-09-08T17:16:57.183Z,100981.84
2023-09-08T17:19:23.789Z,100968.88
2023-09-08T17:21:50.260Z,100970.09
2023-09-08T17:24:18.044Z,100981.88
2023-09-08T17:26:44.519Z,100983.50
2023-09-08T17:29:11.076Z,100972.13
2023-09-08T17:31:37.537Z,100980.63
2023-09-08T17:34:07.699Z,100985.50
2023-09-08T17:36:34.203Z,100984.22
2023-09-08T17:39:00.679Z,100982.22
2023-09-08T17:41:28.505Z,100984.22
2023-09-08T17:43:54.963Z,100980.09
2023-09-08T17:46:21.816Z,100987.00
2023-09-08T17:48:48.476Z,100988.59
2023-09-08T17:51:15.263Z,100981.19
2023-09-08T17:53:41.742Z,100981.56
2023-09-08T17:56:08.391Z,100983.53
2023-09-08T17:58:36.163Z,100984.31
2023-09-08T18:01:02.756Z,100980.25
2023-09-08T18:03:29.360Z,100976.59
2023-09-08T18:05:55.939Z,100980.31
2023-09-08T18:08:22.468Z,100983.00
2023-09-08T18:10:48.994Z,100981.75
2023-09-08T18:13:15.467Z,100991.06
2023-09-08T18:15:43.277Z,100983.00
2023-09-08T18:18:10.150Z,100991.13
2023-09-08T18:20:36.754Z,100987.97
2023-09-08T18:23:03.258Z,100991.00
2023-09-08T18:25:29.716Z,100991.72
2023-09-08T18:27:56.176Z,100985.47
2023-09-08T18:30:25.097Z,100993.59
2023-09-08T18:32:52.889Z,100994.41
2023-09-08T18:35:19.352Z,100995.94
2023-09-08T18:37:45.829Z,101001.91
2023-09-08T18:40:12.493Z,101003.06
2023-09-08T18:42:38.901Z,101002.69
2023-09-08T18:45:07.099Z,101009.03
2023-09-08T18:47:33.774Z,101001.44
2023-09-08T18:50:01.647Z,101001.88
2023-09-08T18:52:28.108Z,100999.56
2023-09-08T18:54:54.613Z,101006.28
2023-09-08T18:57:21.144Z,100999.16
2023-09-08T18:59:49.745Z,101010.50
2023-09-08T19:02:16.445Z,101005.63
2023-09-08T19:04:42.980Z,101004.22
2023-09-08T19:07:10.854Z,101000.75
2023-09-08T19:09:37.321Z,100996.84
2023-09-08T19:12:04.390Z,101002.09
2023-09-08T19:14:30.930Z,101009.00
2023-09-08T19:16:57.674Z,100999.56
2023-09-08T19:19:24.459Z,100999.44
2023-09-08T19:21:50.973Z,100997.78
2023-09-08T19:24:19.074Z,101001.56
2023-09-08T19:26:45.554Z,101001.44
2023-09-08T19:29:12.049Z,101003.06
2023-09-08T19:31:38.550Z,100996.00
2023-09-08T19:34:05.092Z,101008.19
2023-09-08T19:36:31.623Z,100998.03
2023-09-08T19:38:58.120Z,101002.16
2023-09-08T19:41:25.960Z,100999.09
2023-09-08T19:43:52.449Z,100999.28
2023-09-08T19:46:19.157Z,100999.06
2023-09-08T19:48:45.792Z,101002.22
2023-09-08T19:51:12.322Z,101000.69
2023-09-08T19:53:39.021Z,100992.34
2023-09-08T19:56:05.747Z,100998.03
2023-09-08T19:58:33.640Z,100994.03
2023-09-08T20:01:04.239Z,100993.44
2023-09-08T20:03:30.888Z,100998.38
2023-09-08T20:05:57.430Z,100993.81
2023-09-08T20:08:24.084Z,101008.72
2023-09-08T20:10:54.440Z,100997.88
2023-09-08T20:13:21.464Z,100998.84
2023-09-08T20:15:58.622Z,101005.25
2023-09-08T20:18:25.182Z,100998.69
2023-09-08T20:20:53.364Z,100993.53
2023-09-08T20:23:19.871Z,100995.56
2023-09-08T20:25:46.371Z,101007.63
2023-09-08T20:28:12.940Z,100999.38
2023-09-08T20:30:40.209Z,100994.25
2023-09-08T20:33:08.173Z,100996.81
2023-09-08T20:35:35.827Z,101001.72
2023-09-08T20:38:02.666Z,100990.72
2023-09-08T20:40:29.174Z,101002.13
2023-09-08T20:42:55.647Z,100996.16
2023-09-08T20:45:22.235Z,100993.44
2023-09-08T20:47:49.072Z,100996.22
2023-09-08T20:50:17.222Z,100997.56
2023-09-08T20:52:43.949Z,100999.41
2023-09-08T20:55:11.215Z,101001.31
2023-09-08T20:57:37.919Z,101008.59
2023-09-08T21:00:05.517Z,101009.44
2023-09-08T21:02:32.003Z,101004.16
2023-09-08T21:04:58.731Z,101005.19
2023-09-08T21:07:26.562Z,101001.91
2023-09-08T21:09:53.029Z,101009.03
2023-09-08T21:12:19.509Z,101007.50
2023-09-08T21:14:46.179Z,101004.44
2023-09-08T21:17:12.682Z,101001.69
2023-09-08T21:19:39.186Z,101002.44
2023-09-08T21:22:05.748Z,101003.84
2023-09-08T21:24:33.633Z,100999.03
2023-09-08T21:27:00.087Z,101000.25
2023-09-08T21:29:26.735Z,101002.34
2023-09-08T21:31:53.396Z,100998.72
2023-09-08T21:34:19.890Z,100992.38
2023-09-08T21:36:46.337Z,100988.81
2023-09-08T21:39:12.828Z,100988.16
2023-09-08T21:41:40.718Z,100995.56
2023-09-08T21:44:07.217Z,100990.88
2023-09-08T21:46:33.739Z,100994.50
2023-09-08T21:49:00.399Z,100989.94
2023-09-08T21:51:26.907Z,100989.94
2023-09-08T21:53:53.407Z,100987.31
2023-09-08T21:56:19.904Z,100983.75
2023-09-08T21:58:47.715Z,100991.53
2023-09-08T22:01:14.435Z,100984.88
2023-09-08T22:03:41.202Z,100978.31
2023-09-08T22:06:08.240Z,100981.56
2023-09-08T22:08:35.036Z,100981.59
2023-09-08T22:11:02.985Z,100986.44
2023-09-08T22:13:29.462Z,100982.72
2023-09-08T22:15:57.323Z,100984.16
2023-09-08T22:18:23.891Z,100985.19
2023-09-08T22:20:54.316Z,100985.81
2023-09-08T22:23:20.799Z,100984.91
2023-09-08T22:25:47.263Z,100987.06
2023-09-08T22:28:13.721Z,100986.00
2023-09-08T22:30:40.158Z,100987.09
2023-09-08T22:33:08.449Z,100985.09
2023-09-08T22:35:37.606Z,100986.00
2023-09-08T22:38:04.205Z,100976.53
2023-09-08T22:40:30.685Z,100971.72
2023-09-08T22:42:57.191Z,100980.72
2023-09-08T22:45:26.221Z,100982.47
2023-09-08T22:47:52.793Z,100978.72
2023-09-08T22:50:20.882Z,100975.72
2023-09-08T22:52:47.413Z,100978.28
2023-09-08T22:55:25.350Z,100978.34
2023-09-08T22:57:52.532Z,100976.63
2023-09-08T23:00:19.096Z,100971.06
2023-09-08T23:02:46.093Z,100974.66
2023-09-08T23:05:12.708Z,100982.66
2023-09-08T23:07:41.971Z,100984.00
2023-09-08T23:10:09.216Z,100980.97
2023-09-08T23:12:35.704Z,100976.25
2023-09-08T23:15:02.199Z,100980.63
2023-09-08T23:17:28.746Z,100979.81
2023-09-08T23:19:55.352Z,100971.69
2023-09-08T23:22:22.027Z,100966.88
2023-09-08T23:24:49.849Z,100972.78
2023-09-08T23:27:16.540Z,100971.06
2023-09-08T23:29:42.987Z,100971.25
2023-09-08T23:32:09.511Z,100971.56
2023-09-08T23:34:36.010Z,100964.59
2023-09-08T23:37:02.906Z,100976.13
2023-09-08T23:39:29.639Z,100972.75
2023-09-08T23:41:57.659Z,100970.75
2023-09-08T23:44:24.141Z,100956.94
2023-09-08T23:46:50.577Z,100957.00
2023-09-08T23:49:17.159Z,100962.78
2023-09-08T23:51:43.619Z,100959.75
2023-09-08T23:54:10.083Z,100956.19
2023-09-08T23:56:36.571Z,100952.28
2023-09-08T23:59:04.379Z,100957.72
